createdAt,value
2018-09-18T00:01:00.755Z,10.53
2018-09-18T00:03:03.837Z,13.80
2018-09-18T00:05:06.890Z,10.27
2018-09-18T00:07:10.122Z,9.07
2018-09-18T00:09:13.154Z,9.27
2018-09-18T00:11:16.170Z,11.20
2018-09-18T00:13:19.210Z,10.67
2018-09-18T00:15:22.189Z,9.63
2018-09-18T00:17:25.191Z,9.70
2018-09-18T00:19:28.381Z,10.07
2018-09-18T00:21:31.490Z,9.70
2018-09-18T00:23:34.550Z,9.50
2018-09-18T00:25:38.938Z,9.50
2018-09-18T00:27:41.952Z,8.93
2018-09-18T00:29:45.180Z,13.93
2018-09-18T00:31:48.408Z,12.17
2018-09-18T00:33:51.415Z,11.50
2018-09-18T00:35:54.466Z,9.73
2018-09-18T00:37:57.548Z,9.40
2018-09-18T00:40:00.659Z,9.07
2018-09-18T00:42:03.777Z,10.60
2018-09-18T00:44:06.815Z,9.47
2018-09-18T00:46:11.534Z,8.80
2018-09-18T00:48:15.902Z,10.00
2018-09-18T00:50:19.931Z,10.23
2018-09-18T00:52:24.297Z,9.13
2018-09-18T00:54:28.598Z,10.57
2018-09-18T00:56:32.578Z,9.43
2018-09-18T00:58:36.825Z,9.90
2018-09-18T01:00:41.129Z,9.17
2018-09-18T01:02:45.681Z,9.60
2018-09-18T01:04:49.795Z,12.13
2018-09-18T01:06:54.788Z,9.20
2018-09-18T01:08:59.245Z,9.43
2018-09-18T01:11:03.290Z,10.10
2018-09-18T01:13:09.394Z,11.23
2018-09-18T01:15:13.853Z,9.53
2018-09-18T01:17:18.471Z,10.03
2018-09-18T01:19:22.429Z,9.90
2018-09-18T01:21:26.329Z,10.23
2018-09-18T01:23:30.262Z,10.20
2018-09-18T01:25:34.282Z,10.27
2018-09-18T01:27:39.699Z,10.37
2018-09-18T01:29:43.776Z,9.90
2018-09-18T01:31:47.832Z,9.90
2018-09-18T01:33:51.882Z,10.77
2018-09-18T01:35:55.915Z,11.97
2018-09-18T01:38:00.034Z,10.50
2018-09-18T01:40:04.539Z,14.63
2018-09-18T01:42:09.175Z,18.80
2018-09-18T01:44:13.325Z,10.67
2018-09-18T01:46:17.416Z,10.67
2018-09-18T01:48:21.445Z,10.40
2018-09-18T01:50:25.289Z,10.60
2018-09-18T01:52:28.860Z,10.53
2018-09-18T01:54:33.173Z,10.67
2018-09-18T01:56:38.541Z,10.10
2018-09-18T01:58:42.339Z,11.07
2018-09-18T02:00:46.275Z,11.60
2018-09-18T02:02:50.336Z,10.80
2018-09-18T02:04:54.273Z,12.47
2018-09-18T02:06:57.428Z,11.47
2018-09-18T02:09:00.483Z,11.47
2018-09-18T02:11:03.536Z,11.60
2018-09-18T02:13:09.356Z,11.37
2018-09-18T02:15:13.180Z,10.77
2018-09-18T02:17:16.258Z,10.90
2018-09-18T02:19:19.348Z,11.93
2018-09-18T02:21:22.436Z,10.63
2018-09-18T02:23:25.823Z,11.27
2018-09-18T02:25:28.872Z,11.40
2018-09-18T02:27:32.064Z,11.07
2018-09-18T02:29:35.367Z,11.27
2018-09-18T02:31:40.131Z,11.17
2018-09-18T02:33:43.187Z,10.50
2018-09-18T02:35:46.389Z,12.93
2018-09-18T02:37:49.414Z,10.40
2018-09-18T02:39:52.687Z,10.70
2018-09-18T02:41:55.783Z,12.50
2018-09-18T02:43:58.853Z,11.50
2018-09-18T02:46:02.041Z,12.30
2018-09-18T02:48:05.269Z,10.93
2018-09-18T02:50:10.253Z,11.23
2018-09-18T02:52:13.623Z,10.50
2018-09-18T02:54:16.712Z,15.57
2018-09-18T02:56:19.751Z,10.70
2018-09-18T02:58:22.846Z,12.53
2018-09-18T03:00:25.959Z,11.63
2018-09-18T03:02:29.038Z,13.20
2018-09-18T03:04:32.092Z,13.60
2018-09-18T03:06:35.150Z,15.83
2018-09-18T03:08:39.945Z,11.40
2018-09-18T03:10:43.006Z,11.80
2018-09-18T03:12:46.365Z,11.80
2018-09-18T03:14:49.441Z,11.70
2018-09-18T03:16:52.486Z,11.70
2018-09-18T03:18:55.579Z,13.10
2018-09-18T03:20:58.675Z,10.90
2018-09-18T03:23:01.699Z,11.40
2018-09-18T03:25:05.085Z,11.67
2018-09-18T03:27:08.901Z,12.50
2018-09-18T03:29:11.962Z,11.73
2018-09-18T03:31:16.264Z,12.60
2018-09-18T03:33:20.440Z,11.90
2018-09-18T03:35:23.560Z,12.57
2018-09-18T03:37:26.946Z,13.13
2018-09-18T03:39:30.124Z,12.37
2018-09-18T03:41:33.222Z,14.33
2018-09-18T03:48:10.666Z,12.87
2018-09-18T03:50:13.756Z,14.27
2018-09-18T03:52:16.889Z,13.57
2018-09-18T03:54:19.969Z,13.30
2018-09-18T03:56:23.008Z,13.93
2018-09-18T03:58:26.072Z,15.00
2018-09-18T04:00:29.239Z,13.07
2018-09-18T04:02:32.272Z,14.77
2018-09-18T04:04:35.351Z,13.83
2018-09-18T04:06:40.185Z,14.40
2018-09-18T04:08:43.195Z,13.23
2018-09-18T04:10:46.293Z,12.20
2018-09-18T04:12:49.323Z,12.70
2018-09-18T04:14:52.642Z,11.23
2018-09-18T04:16:55.743Z,11.53
2018-09-18T04:18:58.791Z,11.03
2018-09-18T04:21:01.859Z,12.10
2018-09-18T04:23:05.046Z,12.43
2018-09-18T04:25:10.067Z,11.33
2018-09-18T04:27:13.093Z,12.80
2018-09-18T04:29:16.124Z,10.77
2018-09-18T04:31:19.305Z,13.60
2018-09-18T04:33:22.360Z,11.10
2018-09-18T04:35:25.381Z,11.80
2018-09-18T04:37:28.440Z,11.80
2018-09-18T04:39:31.494Z,11.80
2018-09-18T04:41:34.577Z,12.10
2018-09-18T04:43:38.622Z,12.10
2018-09-18T04:45:41.670Z,12.03
2018-09-18T04:47:44.684Z,13.77
2018-09-18T04:49:48.069Z,13.23
2018-09-18T04:51:51.122Z,12.00
2018-09-18T04:53:54.179Z,12.53
2018-09-18T04:55:57.208Z,12.83
2018-09-18T04:58:00.294Z,13.47
2018-09-18T05:00:04.070Z,12.47
2018-09-18T05:02:08.961Z,14.57
2018-09-18T05:04:11.930Z,12.43
2018-09-18T05:06:15.082Z,12.50
2018-09-18T05:08:18.378Z,13.23
2018-09-18T05:10:21.430Z,14.33
2018-09-18T05:12:24.435Z,16.40
2018-09-18T05:14:27.801Z,15.30
2018-09-18T05:16:30.813Z,14.63
2018-09-18T05:18:33.856Z,16.10
2018-09-18T05:20:38.931Z,15.30
2018-09-18T05:22:41.949Z,14.33
2018-09-18T05:24:45.007Z,15.43
2018-09-18T05:26:48.186Z,18.53
2018-09-18T05:28:51.187Z,18.53
2018-09-18T05:30:54.268Z,17.87
2018-09-18T05:32:57.304Z,20.13
2018-09-18T05:35:00.451Z,15.60
2018-09-18T05:37:03.485Z,17.33
2018-09-18T05:39:09.230Z,20.70
2018-09-18T05:41:12.321Z,16.70
2018-09-18T05:43:15.415Z,16.70
2018-09-18T05:45:18.497Z,16.60
2018-09-18T05:47:21.989Z,20.67
2018-09-18T05:49:27.287Z,23.13
2018-09-18T05:51:30.320Z,25.77
2018-09-18T05:53:33.442Z,41.50
2018-09-18T05:55:36.495Z,30.93
2018-09-18T05:57:40.794Z,17.30
2018-09-18T05:59:43.829Z,20.37
2018-09-18T06:01:46.916Z,22.97
2018-09-18T06:03:49.934Z,17.73
2018-09-18T06:05:52.943Z,20.87
2018-09-18T06:07:55.975Z,18.83
2018-09-18T06:09:59.035Z,18.30
2018-09-18T06:12:02.087Z,25.17
2018-09-18T06:14:05.107Z,18.30
2018-09-18T06:16:10.040Z,19.77
2018-09-18T06:18:13.075Z,20.10
2018-09-18T06:20:16.215Z,18.80
2018-09-18T06:22:19.206Z,21.33
2018-09-18T06:24:23.335Z,20.07
2018-09-18T06:26:26.566Z,20.13
2018-09-18T06:28:29.608Z,19.30
2018-09-18T06:30:32.775Z,20.97
2018-09-18T06:32:35.803Z,20.00
2018-09-18T06:34:40.442Z,19.73
2018-09-18T06:36:44.614Z,19.10
2018-09-18T06:38:48.555Z,18.47
2018-09-18T06:40:51.597Z,18.77
2018-09-18T06:42:54.646Z,17.23
2018-09-18T06:44:57.649Z,17.23
2018-09-18T06:47:00.652Z,18.10
2018-09-18T06:49:04.025Z,19.53
2018-09-18T06:51:08.830Z,21.90
2018-09-18T06:53:11.977Z,17.40
2018-09-18T06:55:16.008Z,21.33
2018-09-18T06:57:19.282Z,17.47
2018-09-18T06:59:22.344Z,19.50
2018-09-18T07:01:25.416Z,18.60
2018-09-18T07:03:28.601Z,17.47
2018-09-18T07:05:31.715Z,16.00
2018-09-18T07:07:35.069Z,18.43
2018-09-18T07:09:40.157Z,16.07
2018-09-18T07:11:44.121Z,15.77
2018-09-18T07:13:47.223Z,16.43
2018-09-18T07:15:50.396Z,16.07
2018-09-18T07:17:53.493Z,14.00
2018-09-18T07:19:56.633Z,16.43
2018-09-18T07:21:59.973Z,12.83
2018-09-18T07:24:03.143Z,12.10
2018-09-18T07:26:22.099Z,12.93
2018-09-18T07:28:26.857Z,11.00
2018-09-18T07:30:34.809Z,12.40
2018-09-18T07:32:39.624Z,14.10
2018-09-18T07:34:42.705Z,12.20
2018-09-18T07:36:45.795Z,12.20
2018-09-18T07:38:48.906Z,11.97
2018-09-18T07:40:52.799Z,11.30
2018-09-18T07:42:56.268Z,11.93
2018-09-18T07:44:59.294Z,12.47
2018-09-18T07:47:02.341Z,11.70
2018-09-18T07:49:05.674Z,11.97
2018-09-18T07:51:10.799Z,11.33
2018-09-18T07:53:14.223Z,14.93
2018-09-18T07:55:18.162Z,11.73
2018-09-18T07:57:22.012Z,10.90
2018-09-18T07:59:27.925Z,10.70
2018-09-18T08:01:31.848Z,10.30
2018-09-18T08:03:34.878Z,11.03
2018-09-18T08:05:39.268Z,9.80
2018-09-18T08:07:42.641Z,10.70
2018-09-18T08:09:45.680Z,9.50
2018-09-18T08:11:48.669Z,10.73
2018-09-18T08:13:51.783Z,11.07
2018-09-18T08:15:54.810Z,11.03
2018-09-18T08:17:58.303Z,10.43
2018-09-18T08:20:02.598Z,9.50
2018-09-18T08:22:08.793Z,10.13
2018-09-18T08:24:12.898Z,9.87
2018-09-18T08:26:16.300Z,9.63
2018-09-18T08:28:19.393Z,10.50
2018-09-18T08:30:22.486Z,9.70
2018-09-18T08:32:25.667Z,10.10
2018-09-18T08:34:28.703Z,9.90
2018-09-18T08:36:31.707Z,10.93
2018-09-18T08:38:34.800Z,9.50
2018-09-18T08:40:39.283Z,10.10
2018-09-18T08:42:42.285Z,9.67
2018-09-18T08:44:45.386Z,11.03
2018-09-18T08:46:48.509Z,9.77
2018-09-18T08:48:54.563Z,10.30
2018-09-18T08:50:58.550Z,9.80
2018-09-18T08:53:01.829Z,8.57
2018-09-18T08:55:04.871Z,9.77
2018-09-18T08:57:09.536Z,8.63
2018-09-18T08:59:12.543Z,10.40
2018-09-18T09:01:15.651Z,9.90
2018-09-18T09:03:18.680Z,9.80
2018-09-18T09:05:21.729Z,9.90
2018-09-18T09:07:24.740Z,10.97
2018-09-18T09:09:27.877Z,10.90
2018-09-18T09:11:31.161Z,14.07
2018-09-18T09:13:34.522Z,12.03
2018-09-18T09:15:39.075Z,10.60
2018-09-18T09:17:42.420Z,10.10
2018-09-18T09:19:45.438Z,9.80
2018-09-18T09:21:48.680Z,9.90
2018-09-18T09:23:53.449Z,10.03
2018-09-18T09:25:56.559Z,9.10
2018-09-18T09:27:59.701Z,10.03
2018-09-18T09:30:03.376Z,11.43
2018-09-18T09:32:06.471Z,12.17
2018-09-18T09:34:10.727Z,9.47
2018-09-18T09:36:13.801Z,10.00
2018-09-18T09:38:16.918Z,17.33
2018-09-18T09:40:19.991Z,9.03
2018-09-18T09:42:23.308Z,10.73
2018-09-18T09:44:26.319Z,9.00
2018-09-18T09:46:29.441Z,8.40
2018-09-18T09:48:33.002Z,9.40
2018-09-18T09:50:36.100Z,8.70
2018-09-18T09:52:40.415Z,10.97
2018-09-18T09:54:43.525Z,11.87
2018-09-18T09:56:46.579Z,9.30
2018-09-18T09:58:49.591Z,10.63
2018-09-18T10:00:58.508Z,12.13
2018-09-18T10:03:01.541Z,7.97
2018-09-18T10:05:04.595Z,8.00
2018-09-18T10:07:08.978Z,8.10
2018-09-18T10:09:12.779Z,8.30
2018-09-18T10:11:15.810Z,7.40
2018-09-18T10:13:18.840Z,12.30
2018-09-18T10:15:21.989Z,8.03
2018-09-18T10:17:25.051Z,9.20
2018-09-18T10:19:28.095Z,9.23
2018-09-18T10:21:31.091Z,8.20
2018-09-18T10:23:34.120Z,8.83
2018-09-18T10:25:37.832Z,7.67
2018-09-18T10:27:41.278Z,8.33
2018-09-18T10:29:44.367Z,7.10
2018-09-18T10:31:47.383Z,7.03
2018-09-18T10:33:50.497Z,7.50
2018-09-18T10:35:53.621Z,11.67
2018-09-18T10:37:56.654Z,10.30
2018-09-18T10:39:59.714Z,21.53
2018-09-18T10:42:02.770Z,7.40
2018-09-18T10:44:05.739Z,8.53
2018-09-18T10:46:10.211Z,7.33
2018-09-18T10:48:13.241Z,9.67
2018-09-18T10:50:16.307Z,8.03
2018-09-18T10:52:19.373Z,11.90
2018-09-18T10:54:22.442Z,7.17
2018-09-18T10:56:25.544Z,6.27
2018-09-18T10:58:28.604Z,7.53
2018-09-18T11:00:31.615Z,13.67
2018-09-18T11:02:34.695Z,6.07
2018-09-18T11:04:39.792Z,6.10
2018-09-18T11:06:42.965Z,6.10
2018-09-18T11:08:46.060Z,6.33
2018-09-18T11:10:49.533Z,9.53
2018-09-18T11:12:52.742Z,6.10
2018-09-18T11:14:55.813Z,6.50
2018-09-18T11:16:58.838Z,6.07
2018-09-18T11:19:01.931Z,7.03
2018-09-18T11:21:04.900Z,6.47
2018-09-18T11:23:09.493Z,6.67
2018-09-18T11:25:12.642Z,7.00
2018-09-18T11:27:15.593Z,10.63
2018-09-18T11:29:18.637Z,9.00
2018-09-18T11:31:21.647Z,8.43
2018-09-18T11:33:24.682Z,9.33
2018-09-18T11:35:27.752Z,7.73
2018-09-18T11:37:30.744Z,8.23
2018-09-18T11:39:33.771Z,7.37
2018-09-18T11:41:37.136Z,9.37
2018-09-18T11:43:40.767Z,10.20
2018-09-18T11:45:43.836Z,7.90
2018-09-18T11:47:47.756Z,15.00
2018-09-18T11:49:51.626Z,8.17
2018-09-18T11:51:55.616Z,12.17
2018-09-18T11:53:59.572Z,7.30
2018-09-18T11:56:03.680Z,7.43
2018-09-18T11:58:06.896Z,7.20
2018-09-18T12:00:11.377Z,8.93
2018-09-18T12:02:14.401Z,6.97
2018-09-18T12:04:17.630Z,8.30
2018-09-18T12:06:20.691Z,5.90
2018-09-18T12:08:23.852Z,5.80
2018-09-18T12:10:26.987Z,7.27
2018-09-18T12:12:30.071Z,10.23
2018-09-18T12:14:33.133Z,6.63
2018-09-18T12:16:36.299Z,7.53
2018-09-18T12:18:40.833Z,6.07
2018-09-18T12:20:43.963Z,5.93
2018-09-18T12:22:47.212Z,6.93
2018-09-18T12:27:25.528Z,6.43
2018-09-18T12:29:28.551Z,6.27
2018-09-18T12:34:33.695Z,8.13
2018-09-18T12:36:36.957Z,6.50
2018-09-18T12:38:41.007Z,5.80
2018-09-18T12:40:44.180Z,5.80
2018-09-18T12:42:48.771Z,5.83
2018-09-18T12:44:51.868Z,13.03
2018-09-18T12:46:54.920Z,7.03
2018-09-18T12:48:58.112Z,6.00
2018-09-18T12:51:01.683Z,8.50
2018-09-18T12:53:04.899Z,9.17
2018-09-18T12:55:07.978Z,6.40
2018-09-18T12:57:11.156Z,6.73
2018-09-18T12:59:21.319Z,8.10
2018-09-18T13:01:27.334Z,7.70
2018-09-18T13:03:30.638Z,5.30
2018-09-18T13:05:41.461Z,6.30
2018-09-18T13:07:51.096Z,6.97
2018-09-18T13:09:56.591Z,5.50
2018-09-18T13:27:40.168Z,7.13
2018-09-18T13:55:19.068Z,4.83
2018-09-18T13:57:25.965Z,7.03
2018-09-18T13:59:37.326Z,4.73
2018-09-18T14:02:03.144Z,4.27
2018-09-18T14:04:11.836Z,8.50
2018-09-18T14:06:31.801Z,7.67
2018-09-18T14:08:54.996Z,5.50
2018-09-18T14:11:02.799Z,4.37
2018-09-18T14:13:09.777Z,14.23
2018-09-18T14:15:13.959Z,4.50
2018-09-18T14:17:23.966Z,5.27
2018-09-18T14:19:31.833Z,5.70
2018-09-18T14:21:35.857Z,5.03
2018-09-18T14:23:40.285Z,4.20
2018-09-18T14:25:43.511Z,4.30
2018-09-18T14:27:46.949Z,4.80
2018-09-18T14:29:50.492Z,8.80
2018-09-18T14:31:53.672Z,5.77
2018-09-18T14:33:56.784Z,6.77
2018-09-18T14:36:04.472Z,8.80
2018-09-18T14:38:08.422Z,4.87
2018-09-18T14:40:11.703Z,5.83
2018-09-18T14:42:15.904Z,4.20
2018-09-18T14:44:18.987Z,4.20
2018-09-18T14:46:22.158Z,4.80
2018-09-18T14:48:25.348Z,4.30
2018-09-18T14:50:29.747Z,6.13
2018-09-18T14:52:33.345Z,4.57
2018-09-18T14:54:36.404Z,3.70
2018-09-18T14:56:39.638Z,4.80
2018-09-18T14:58:42.784Z,6.60
2018-09-18T15:00:45.825Z,4.93
2018-09-18T15:02:49.009Z,6.17
2018-09-18T15:04:52.151Z,4.53
2018-09-18T15:06:55.449Z,7.60
2018-09-18T15:08:58.544Z,5.00
2018-09-18T15:11:01.817Z,5.03
2018-09-18T15:13:05.129Z,5.07
2018-09-18T15:15:13.732Z,4.77
2018-09-18T15:17:18.801Z,5.80
2018-09-18T15:19:22.237Z,8.43
2018-09-18T15:21:25.474Z,4.87
2018-09-18T15:23:28.572Z,7.10
2018-09-18T15:25:32.855Z,4.43
2018-09-18T15:27:36.176Z,5.60
2018-09-18T15:29:39.360Z,7.43
2018-09-18T15:31:42.815Z,4.93
2018-09-18T15:33:46.298Z,4.90
2018-09-18T15:35:49.409Z,4.70
2018-09-18T15:37:52.505Z,10.63
2018-09-18T15:39:56.725Z,7.00
2018-09-18T15:41:59.781Z,6.37
2018-09-18T15:44:02.843Z,5.17
2018-09-18T15:46:06.007Z,6.33
2018-09-18T15:48:09.139Z,5.07
2018-09-18T15:50:13.179Z,7.90
2018-09-18T15:52:16.185Z,5.27
2018-09-18T15:54:19.213Z,5.57
2018-09-18T15:56:23.011Z,5.03
2018-09-18T15:58:26.149Z,5.60
2018-09-18T16:00:29.240Z,4.67
2018-09-18T16:02:32.282Z,8.53
2018-09-18T16:04:35.666Z,6.97
2018-09-18T16:06:38.729Z,7.20
2018-09-18T16:08:41.744Z,4.93
2018-09-18T16:10:45.084Z,4.70
2018-09-18T16:12:48.066Z,4.47
2018-09-18T16:14:51.215Z,5.83
2018-09-18T16:16:54.237Z,10.30
2018-09-18T16:18:57.197Z,6.27
2018-09-18T16:21:00.283Z,6.37
2018-09-18T16:23:03.337Z,8.13
2018-09-18T16:25:06.560Z,6.97
2018-09-18T16:27:09.586Z,6.20
2018-09-18T16:29:12.568Z,6.30
2018-09-18T16:31:15.619Z,8.80
2018-09-18T16:35:44.173Z,6.90
2018-09-18T16:37:48.276Z,6.00
2018-09-18T16:39:51.449Z,20.97
2018-09-18T16:41:54.689Z,8.07
2018-09-18T16:43:57.783Z,10.63
2018-09-18T16:46:01.559Z,23.77
2018-09-18T16:48:05.592Z,6.50
2018-09-18T16:50:09.454Z,7.87
2018-09-18T16:52:24.463Z,12.30
2018-09-18T16:54:34.604Z,30.73
2018-09-18T16:56:39.495Z,10.47
2018-09-18T16:58:47.322Z,16.13
2018-09-18T17:00:51.596Z,8.03
2018-09-18T17:02:55.406Z,21.00
2018-09-18T17:04:58.876Z,33.87
2018-09-18T17:07:02.705Z,22.83
2018-09-18T17:09:08.511Z,15.33
2018-09-18T17:11:13.574Z,19.10
2018-09-18T17:13:16.603Z,24.10
2018-09-18T17:15:19.956Z,31.10
2018-09-18T17:17:22.888Z,57.80
2018-09-18T17:19:26.230Z,112.87
2018-09-18T17:21:29.213Z,88.13
2018-09-18T17:23:32.160Z,48.50
2018-09-18T17:25:35.150Z,69.40
2018-09-18T17:27:38.249Z,61.50
2018-09-18T17:29:47.864Z,50.17
2018-09-18T17:31:50.920Z,65.83
2018-09-18T17:33:54.177Z,53.70
2018-09-18T17:35:57.115Z,44.27
2018-09-18T17:38:00.078Z,57.70
2018-09-18T17:40:03.200Z,53.83
2018-09-18T17:42:06.202Z,26.03
2018-09-18T17:44:10.103Z,11.83
2018-09-18T17:46:14.740Z,12.97
2018-09-18T17:48:17.771Z,9.40
2018-09-18T17:50:20.936Z,21.07
2018-09-18T17:52:23.907Z,34.60
2018-09-18T17:54:28.320Z,42.30
2018-09-18T17:56:31.703Z,53.10
2018-09-18T17:58:34.849Z,56.80
2018-09-18T18:00:37.802Z,83.07
2018-09-18T18:02:40.804Z,61.77
2018-09-18T18:04:45.731Z,53.80
2018-09-18T18:06:48.753Z,67.33
2018-09-18T18:08:51.851Z,77.10
2018-09-18T18:10:58.973Z,93.03
2018-09-18T18:13:01.937Z,92.80
2018-09-18T18:15:04.984Z,72.00
2018-09-18T18:17:07.980Z,61.60
2018-09-18T18:19:10.917Z,45.60
2018-09-18T18:21:15.851Z,52.73
2018-09-18T18:23:18.823Z,53.90
2018-09-18T18:25:21.798Z,28.40
2018-09-18T18:27:24.821Z,38.00
2018-09-18T18:29:27.812Z,49.27
2018-09-18T18:31:30.817Z,48.83
2018-09-18T18:33:33.804Z,26.27
2018-09-18T18:35:36.860Z,21.67
2018-09-18T18:37:40.094Z,20.73
2018-09-18T18:39:44.498Z,20.67
2018-09-18T18:41:47.573Z,17.03
2018-09-18T18:43:50.554Z,15.80
2018-09-18T18:45:59.585Z,7.13
2018-09-18T18:48:02.725Z,12.03
2018-09-18T18:50:05.843Z,8.00
2018-09-18T18:52:08.792Z,10.10
2018-09-18T18:54:13.080Z,7.40
2018-09-18T18:56:16.101Z,8.57
2018-09-18T18:58:19.071Z,8.83
2018-09-18T19:00:22.689Z,10.13
2018-09-18T19:02:31.729Z,10.90
2018-09-18T19:04:34.772Z,7.57
2018-09-18T19:06:38.081Z,8.83
2018-09-18T19:08:47.399Z,11.80
2018-09-18T19:10:50.397Z,8.43
2018-09-18T19:12:53.676Z,13.40
2018-09-18T19:14:56.632Z,10.67
2018-09-18T19:16:59.597Z,22.60
2018-09-18T19:19:08.961Z,25.60
2018-09-18T19:21:13.801Z,16.37
2018-09-18T19:23:16.860Z,28.57
2018-09-18T19:25:19.947Z,11.43
2018-09-18T19:27:22.972Z,9.90
2018-09-18T19:29:26.487Z,10.50
2018-09-18T19:31:29.436Z,8.70
2018-09-18T19:33:32.491Z,10.10
2018-09-18T19:35:41.926Z,13.37
2018-09-18T19:37:44.896Z,8.43
2018-09-18T19:39:54.149Z,24.00
2018-09-18T19:41:57.131Z,23.97
2018-09-18T19:44:03.796Z,19.47
2018-09-18T19:46:14.507Z,34.87
2018-09-18T19:48:17.522Z,21.37
2018-09-18T19:50:20.513Z,21.67
2018-09-18T19:52:23.575Z,9.70
2018-09-18T19:54:26.535Z,10.80
2018-09-18T19:56:29.532Z,8.00
2018-09-18T19:58:44.435Z,12.80
2018-09-18T20:00:52.441Z,12.00
2018-09-18T20:02:55.458Z,13.80
2018-09-18T20:04:58.392Z,19.07
2018-09-18T20:07:01.396Z,8.50
2018-09-18T20:09:08.623Z,8.87
2018-09-18T20:11:19.429Z,12.20
2018-09-18T20:13:28.525Z,12.17
2018-09-18T20:15:31.581Z,10.03
2018-09-18T20:17:34.673Z,8.70
2018-09-18T20:19:37.706Z,14.17
2018-09-18T20:21:40.750Z,8.97
2018-09-18T20:23:45.062Z,8.97
2018-09-18T20:25:48.209Z,10.90
2018-09-18T20:27:51.358Z,9.13
2018-09-18T20:29:54.392Z,10.30
2018-09-18T20:31:57.400Z,8.97
2018-09-18T20:34:00.451Z,8.93
2018-09-18T20:36:03.607Z,8.90
2018-09-18T20:38:06.534Z,8.80
2018-09-18T20:40:09.539Z,8.30
2018-09-18T20:42:14.370Z,9.70
2018-09-18T20:44:17.421Z,8.30
2018-09-18T20:46:20.426Z,8.40
2018-09-18T20:48:23.477Z,9.13
2018-09-18T20:50:26.473Z,8.70
2018-09-18T20:52:29.506Z,8.70
2018-09-18T20:54:32.495Z,9.10
2018-09-18T20:56:35.506Z,10.80
2018-09-18T20:58:38.512Z,9.97
2018-09-18T21:00:43.381Z,15.67
2018-09-18T21:02:46.919Z,26.13
2018-09-18T21:04:49.941Z,22.60
2018-09-18T21:06:52.944Z,24.70
2018-09-18T21:08:56.320Z,21.53
2018-09-18T21:11:19.744Z,18.10
2018-09-18T21:13:28.857Z,14.47
2018-09-18T21:15:31.866Z,13.20
2018-09-18T21:17:34.939Z,12.20
2018-09-18T21:19:37.928Z,10.90
2018-09-18T21:21:40.868Z,9.90
2018-09-18T21:23:45.275Z,9.43
2018-09-18T21:26:06.160Z,10.93
2018-09-18T21:28:09.170Z,9.20
2018-09-18T21:30:12.511Z,10.70
2018-09-18T21:32:15.475Z,11.53
2018-09-18T21:34:18.472Z,18.67
2018-09-18T21:36:21.434Z,9.00
2018-09-18T21:38:24.448Z,9.13
2018-09-18T21:40:27.461Z,13.37
2018-09-18T21:42:30.541Z,14.47
2018-09-18T21:44:33.499Z,24.80
2018-09-18T21:46:36.680Z,12.77
2018-09-18T21:48:39.626Z,10.60
2018-09-18T21:50:43.982Z,10.47
2018-09-18T21:52:47.327Z,10.40
2018-09-18T21:54:50.422Z,13.17
2018-09-18T21:56:53.402Z,16.63
2018-09-18T21:58:56.368Z,10.40
2018-09-18T22:01:03.905Z,11.37
2018-09-18T22:03:06.969Z,10.83
2018-09-18T22:05:10.012Z,13.83
2018-09-18T22:07:14.486Z,12.40
2018-09-18T22:09:17.440Z,14.50
2018-09-18T22:11:20.497Z,11.50
2018-09-18T22:13:23.469Z,12.03
2018-09-18T22:15:27.037Z,9.33
2018-09-18T22:17:30.035Z,8.27
2018-09-18T22:19:33.034Z,10.40
2018-09-18T22:21:35.999Z,9.93
2018-09-18T22:23:39.030Z,8.80
2018-09-18T22:25:43.486Z,10.37
2018-09-18T22:27:46.569Z,10.00
2018-09-18T22:29:50.121Z,9.13
2018-09-18T22:31:53.103Z,9.57
2018-09-18T22:33:56.129Z,15.00
2018-09-18T22:35:59.151Z,15.83
2018-09-18T22:38:02.137Z,15.23
2018-09-18T22:40:05.269Z,28.60
2018-09-18T22:42:08.284Z,19.17
2018-09-18T22:44:12.846Z,8.20
2018-09-18T22:46:15.819Z,14.67
2018-09-18T22:48:18.825Z,9.43
2018-09-18T22:50:21.894Z,9.60
2018-09-18T22:52:25.035Z,8.90
2018-09-18T22:54:28.027Z,9.50
2018-09-18T22:56:31.008Z,12.93
2018-09-18T22:58:34.078Z,10.97
2018-09-18T23:00:37.108Z,10.33
2018-09-18T23:02:40.117Z,9.03
2018-09-18T23:04:45.033Z,10.40
2018-09-18T23:06:48.103Z,11.20
2018-09-18T23:08:51.152Z,9.67
2018-09-18T23:10:54.378Z,9.67
2018-09-18T23:12:57.370Z,12.33
2018-09-18T23:15:00.482Z,9.87
2018-09-18T23:17:03.520Z,10.07
2018-09-18T23:19:06.504Z,24.00
2018-09-18T23:21:09.520Z,11.80
2018-09-18T23:23:14.440Z,14.30
2018-09-18T23:25:17.410Z,10.90
2018-09-18T23:27:20.385Z,10.47
2018-09-18T23:29:23.752Z,10.50
2018-09-18T23:31:26.737Z,15.37
2018-09-18T23:33:29.750Z,9.53
2018-09-18T23:35:32.854Z,9.97
2018-09-18T23:37:35.793Z,10.07
2018-09-18T23:39:38.866Z,10.30
2018-09-18T23:41:42.373Z,10.00
2018-09-18T23:43:45.866Z,10.00
2018-09-18T23:45:49.068Z,9.50
2018-09-18T23:47:52.055Z,10.40
2018-09-18T23:49:55.080Z,9.60
2018-09-18T23:51:58.038Z,8.93
2018-09-18T23:54:00.990Z,9.90
2018-09-18T23:56:04.027Z,13.00
2018-09-18T23:58:06.998Z,10.57
